Messwerte Jask

Temperatur

Temperatur
°C
1638354600 14.00 14.00 27
1638358200 15.00 15.00 27
1638361800 16.00 16.00 27
1638365400 17.00 17.00 26
1638369000 18.00 18.00 25
1638372600 19.00 19.00 25
1638376200 20.00 20.00 25
1638379800 21.00 21.00 24
1638383400 22.00 22.00 24
1638387000 23.00 23.00
1638390600 0.00 0.00
1638394200 1.00 1.00 22
1638397800 2.00 2.00
1638401400 3.00 3.00
1638405000 4.00 4.00 21
1638408600 5.00 5.00
1638412200 6.00 6.00 20
1638415800 7.00 7.00 21
1638419400 8.00 8.00 22
1638423000 9.00 9.00 24
1638426600 10.00 10.00 25
1638430200 11.00 11.00 27
1638433800 12.00 12.00 26
1638437400 13.00 13.00 26

Aktuellste Messwerte

Wettercharakter
Wetter: recht sonnig
Temperatur
27 °C
Feuchtigkeit
60 %
Wind
15 km/hWindrichtung: West
Luftdruck
1014 hPa
Messzeit: 2. Dezember 2021, 13.30Datenquelle: METAR

Weitere Messstationen in der Nähe

Messstation Temperatur Entfernung
Fujairah 27 °C 156 km
Khassab 28 °C 159 km
Suhar - 173 km
Ras Al Khaimah 29 °C 184 km
Bandar Abbas 28 °C 225 km
Schardscha 30 °C 228 km
Maskat 26 °C 234 km

Wind

Windrichtung Böen Mittelwind
° km/h km/h
1638354600 14.00 13.00 - 14.00 290° 15
1638358200 15.00 14.00 - 15.00 290° 20
1638361800 16.00 15.00 - 16.00 280° 15
1638365400 17.00 16.00 - 17.00 280° 15
1638369000 18.00 17.00 - 18.00 290° 15
1638372600 19.00 18.00 - 19.00 310° 10
1638376200 20.00 19.00 - 20.00 300° 5
1638379800 21.00 20.00 - 21.00 320° 10
1638383400 22.00 21.00 - 22.00 310° 10
1638387000 23.00 22.00 - 23.00
1638390600 0.00 23.00 - 0.00
1638394200 1.00 0.00 - 1.00 80° 5
1638397800 2.00 1.00 - 2.00
1638401400 3.00 2.00 - 3.00
1638405000 4.00 3.00 - 4.00 10° 5
1638408600 5.00 4.00 - 5.00
1638412200 6.00 5.00 - 6.00 20° 5
1638415800 7.00 6.00 - 7.00 30° 5
1638419400 8.00 7.00 - 8.00 30° 5
1638423000 9.00 8.00 - 9.00 20° 5
1638426600 10.00 9.00 - 10.00 30° 5
1638430200 11.00 10.00 - 11.00 190° 5
1638433800 12.00 11.00 - 12.00 320° 10
1638437400 13.00 12.00 - 13.00 290° 15

Ihre Wetterstation

Fehlt Ihre Wetterstation auf unserem Portal?

Schreiben Sie an network@meteonews.ch

Klima

Wann ist es am wärmsten? Wann regnet es am wenigsten? Unsere Klimadaten geben Auskunft.